createdAt,value
2023-04-04T00:02:01.835Z,1.32
2023-04-04T00:05:45.067Z,1.29
2023-04-04T00:09:27.706Z,1.27
2023-04-04T00:13:10.453Z,1.38
2023-04-04T00:16:54.524Z,1.42
2023-04-04T00:20:37.360Z,1.44
2023-04-04T00:24:20.133Z,1.46
2023-04-04T00:28:03.190Z,1.43
2023-04-04T00:31:45.961Z,1.45
2023-04-04T00:35:29.968Z,1.39
2023-04-04T00:39:12.675Z,1.44
2023-04-04T00:42:55.595Z,1.49
2023-04-04T00:46:38.335Z,1.48
2023-04-04T00:50:21.052Z,1.51
2023-04-04T00:54:05.431Z,1.49
2023-04-04T00:57:48.247Z,1.52
2023-04-04T01:01:31.583Z,1.41
2023-04-04T01:05:14.358Z,1.39
2023-04-04T01:08:57.380Z,1.39
2023-04-04T01:12:41.674Z,1.39
2023-04-04T01:16:26.972Z,1.34
2023-04-04T01:20:13.353Z,1.28
2023-04-04T01:24:01.327Z,1.17
2023-04-04T01:27:45.713Z,1.14
2023-04-04T01:31:30.633Z,1.07
2023-04-04T01:35:21.561Z,1.11
2023-04-04T01:39:09.757Z,0.92
2023-04-04T01:42:53.963Z,0.84
2023-04-04T01:46:37.174Z,0.72
2023-04-04T01:50:19.984Z,0.68
2023-04-04T01:54:02.614Z,0.61
2023-04-04T01:57:46.096Z,0.59
2023-04-04T02:01:30.235Z,0.60
2023-04-04T02:05:13.035Z,0.67
2023-04-04T02:08:56.204Z,0.63
2023-04-04T02:12:39.987Z,0.65
2023-04-04T02:16:22.702Z,0.65
2023-04-04T02:20:08.351Z,0.63
2023-04-04T02:23:51.139Z,0.60
2023-04-04T02:27:34.066Z,0.52
2023-04-04T02:31:17.260Z,0.53
2023-04-04T02:34:59.984Z,0.43
2023-04-04T02:38:43.984Z,0.39
2023-04-04T02:42:26.624Z,0.41
2023-04-04T02:46:20.583Z,0.43
2023-04-04T02:50:04.210Z,0.40
2023-04-04T02:53:48.248Z,0.27
2023-04-04T02:57:30.918Z,0.25
2023-04-04T03:01:13.570Z,0.28
2023-04-04T03:04:56.208Z,0.25
2023-04-04T03:08:38.887Z,0.17
2023-04-04T03:12:22.881Z,0.07
2023-04-04T03:16:07.644Z,0.01
2023-04-04T03:19:50.362Z,0.05
2023-04-04T03:23:33.008Z,0.05
2023-04-04T03:27:16.198Z,0.05
2023-04-04T03:31:04.676Z,0.09
2023-04-04T03:34:47.453Z,0.10
2023-04-04T03:38:30.218Z,0.10
2023-04-04T03:42:13.119Z,0.12
2023-04-04T03:45:55.848Z,0.11
2023-04-04T03:49:39.886Z,0.05
2023-04-04T03:53:22.690Z,0.05
2023-04-04T03:57:05.568Z,-0.02
2023-04-04T04:00:48.230Z,-0.01
2023-04-04T04:04:31.027Z,-0.06
2023-04-04T04:08:15.051Z,-0.13
2023-04-04T04:11:57.758Z,-0.07
2023-04-04T04:15:40.661Z,0.04
2023-04-04T04:19:23.513Z,-0.04
2023-04-04T04:23:06.141Z,-0.11
2023-04-04T04:26:50.428Z,-0.12
2023-04-04T04:30:33.117Z,-0.09
2023-04-04T04:34:15.835Z,-0.13
2023-04-04T04:37:58.499Z,-0.17
2023-04-04T04:41:41.532Z,-0.27
2023-04-04T04:45:26.206Z,-0.33
2023-04-04T04:49:09.072Z,-0.34
2023-04-04T04:52:52.422Z,-0.40
2023-04-04T04:56:35.136Z,-0.45
2023-04-04T05:00:19.002Z,-0.47
2023-04-04T05:04:03.185Z,-0.44
2023-04-04T05:07:47.073Z,-0.37
2023-04-04T05:11:29.717Z,-0.35
2023-04-04T05:15:12.739Z,-0.39
2023-04-04T05:18:55.404Z,-0.37
2023-04-04T05:22:43.903Z,-0.40
2023-04-04T05:26:26.556Z,-0.38
2023-04-04T05:30:10.200Z,-0.30
2023-04-04T05:33:53.879Z,-0.37
2023-04-04T05:37:41.198Z,-0.29
2023-04-04T05:41:23.824Z,-0.27
2023-04-04T05:45:07.603Z,-0.26
2023-04-04T05:48:51.987Z,-0.29
2023-04-04T05:52:34.664Z,-0.20
2023-04-04T05:56:18.793Z,-0.18
2023-04-04T06:00:01.468Z,-0.27
2023-04-04T06:03:44.084Z,-0.34
2023-04-04T06:07:26.805Z,-0.28
2023-04-04T06:11:09.460Z,-0.17
2023-04-04T06:14:53.502Z,-0.15
2023-04-04T06:18:36.140Z,-0.10
2023-04-04T06:22:21.576Z,-0.03
2023-04-04T06:26:05.880Z,0.08
2023-04-04T06:29:49.101Z,0.15
2023-04-04T06:33:33.040Z,0.21
2023-04-04T06:37:18.256Z,0.24
2023-04-04T06:41:00.953Z,0.32
2023-04-04T06:44:43.659Z,0.44
2023-04-04T06:48:28.436Z,0.48
2023-04-04T06:52:12.526Z,0.56
2023-04-04T06:55:58.033Z,0.55
2023-04-04T06:59:41.147Z,0.54
2023-04-04T07:03:24.780Z,0.58
2023-04-04T07:07:07.484Z,0.65
2023-04-04T07:10:51.562Z,0.71
2023-04-04T07:14:34.220Z,0.76
2023-04-04T07:18:16.936Z,0.80
2023-04-04T07:21:59.605Z,0.85
2023-04-04T07:25:44.967Z,0.88
2023-04-04T07:29:29.212Z,0.95
2023-04-04T07:33:11.998Z,1.08
2023-04-04T07:36:55.185Z,1.14
2023-04-04T07:40:38.182Z,1.24
2023-04-04T07:44:21.158Z,1.33
2023-04-04T07:48:05.726Z,1.37
2023-04-04T07:51:48.977Z,1.38
2023-04-04T07:55:31.631Z,1.43
2023-04-04T07:59:14.250Z,1.48
2023-04-04T08:03:01.574Z,1.64
2023-04-04T08:06:45.724Z,1.58
2023-04-04T08:10:28.359Z,1.68
2023-04-04T08:14:11.910Z,1.71
2023-04-04T08:17:56.092Z,1.76
2023-04-04T08:21:38.882Z,2.06
2023-04-04T08:25:23.024Z,2.10
2023-04-04T08:29:05.857Z,2.25
2023-04-04T08:32:48.728Z,2.42
2023-04-04T08:36:31.432Z,2.60
2023-04-04T08:40:14.417Z,2.75
2023-04-04T08:43:59.233Z,2.78
2023-04-04T08:47:42.973Z,2.89
2023-04-04T08:51:27.267Z,2.94
2023-04-04T08:55:11.169Z,3.01
2023-04-04T08:58:53.856Z,3.06
2023-04-04T09:02:43.456Z,3.13
2023-04-04T09:06:28.053Z,2.99
2023-04-04T09:10:12.075Z,3.04
2023-04-04T09:13:56.004Z,3.34
2023-04-04T09:17:40.094Z,3.53
2023-04-04T09:21:22.737Z,3.48
2023-04-04T09:25:09.473Z,3.65
2023-04-04T09:28:53.849Z,3.58
2023-04-04T09:32:36.516Z,3.51
2023-04-04T09:36:20.998Z,3.47
2023-04-04T09:40:08.311Z,3.62
2023-04-04T09:43:51.976Z,3.61
2023-04-04T09:47:36.424Z,3.56
2023-04-04T09:51:20.506Z,3.55
2023-04-04T09:55:04.375Z,3.57
2023-04-04T09:59:00.777Z,3.65
2023-04-04T10:02:48.678Z,3.72
2023-04-04T10:06:33.244Z,3.69
2023-04-04T10:10:16.554Z,3.78
2023-04-04T10:13:59.399Z,3.94
2023-04-04T10:17:44.016Z,4.21
2023-04-04T10:21:28.202Z,4.60
2023-04-04T10:25:12.359Z,4.92
2023-04-04T10:28:58.263Z,5.32
2023-04-04T10:32:48.504Z,5.29
2023-04-04T10:36:32.414Z,5.32
2023-04-04T10:40:19.455Z,5.26
2023-04-04T10:44:10.808Z,5.23
2023-04-04T10:47:54.200Z,5.11
2023-04-04T10:51:45.142Z,5.34
2023-04-04T10:55:39.092Z,5.25
2023-04-04T10:59:22.314Z,5.18
2023-04-04T11:03:05.614Z,5.17
2023-04-04T11:07:16.554Z,5.17
2023-04-04T11:11:05.010Z,5.35
2023-04-04T11:14:58.103Z,5.31
2023-04-04T11:18:47.405Z,5.32
2023-04-04T11:22:30.462Z,5.22
2023-04-04T11:26:14.638Z,4.79
2023-04-04T11:29:59.276Z,4.54
2023-04-04T11:33:56.069Z,4.35
2023-04-04T11:37:44.673Z,4.16
2023-04-04T11:41:44.984Z,4.05
2023-04-04T11:45:27.895Z,4.03
2023-04-04T11:49:11.318Z,4.09
2023-04-04T11:52:54.748Z,4.09
2023-04-04T11:56:39.032Z,4.34
2023-04-04T12:00:31.787Z,4.50
2023-04-04T12:04:16.745Z,4.66
2023-04-04T12:08:01.801Z,4.62
2023-04-04T12:11:46.826Z,4.66
2023-04-04T12:15:31.391Z,4.69
2023-04-04T12:19:14.072Z,4.80
2023-04-04T12:22:56.977Z,4.95
2023-04-04T12:26:40.868Z,5.12
2023-04-04T12:30:25.364Z,5.41
2023-04-04T12:34:08.472Z,5.34
2023-04-04T12:38:01.526Z,5.26
2023-04-04T12:41:53.273Z,5.52
2023-04-04T12:45:41.315Z,5.56
2023-04-04T12:49:24.291Z,5.74
2023-04-04T12:53:23.999Z,5.90
2023-04-04T12:57:15.313Z,6.06
2023-04-04T13:01:01.240Z,6.17
2023-04-04T13:04:46.434Z,6.39
2023-04-04T13:08:29.032Z,6.66
2023-04-04T13:12:12.824Z,7.05
2023-04-04T13:15:55.416Z,7.20
2023-04-04T13:19:39.436Z,7.43
2023-04-04T13:23:22.488Z,7.53
2023-04-04T13:27:05.250Z,7.84
2023-04-04T13:30:49.240Z,8.00
2023-04-04T13:34:32.793Z,8.15
2023-04-04T13:38:17.653Z,8.25
2023-04-04T13:42:02.080Z,8.22
2023-04-04T13:45:45.011Z,8.05
2023-04-04T13:49:27.703Z,7.96
2023-04-04T13:53:10.952Z,8.20
2023-04-04T13:56:55.836Z,8.24
2023-04-04T14:00:38.554Z,8.20
2023-04-04T14:04:24.082Z,8.15
2023-04-04T14:08:08.035Z,8.29
2023-04-04T14:11:50.669Z,8.59
2023-04-04T14:15:34.685Z,9.02
2023-04-04T14:19:17.316Z,9.43
2023-04-04T14:22:59.947Z,9.78
2023-04-04T14:26:42.661Z,9.99
2023-04-04T14:30:25.639Z,10.31
2023-04-04T14:34:10.383Z,10.69
2023-04-04T14:37:53.970Z,10.96
2023-04-04T14:41:37.870Z,11.19
2023-04-04T14:45:20.587Z,11.35
2023-04-04T14:49:05.698Z,11.68
2023-04-04T14:52:52.755Z,11.78
2023-04-04T14:56:36.212Z,11.42
2023-04-04T15:00:20.754Z,11.03
2023-04-04T15:04:03.737Z,10.64
2023-04-04T15:07:47.344Z,10.48
2023-04-04T15:11:31.344Z,10.82
2023-04-04T15:15:14.172Z,11.25
2023-04-04T15:18:57.155Z,11.61
2023-04-04T15:22:41.374Z,11.69
2023-04-04T15:26:24.639Z,11.89
2023-04-04T15:30:10.127Z,12.25
2023-04-04T15:33:55.065Z,12.57
2023-04-04T15:37:37.721Z,12.84
2023-04-04T15:41:20.461Z,13.08
2023-04-04T15:45:03.644Z,13.33
2023-04-04T15:48:48.234Z,13.52
2023-04-04T15:52:30.863Z,12.75
2023-04-04T15:56:14.224Z,12.63
2023-04-04T15:59:56.995Z,12.95
2023-04-04T16:03:39.818Z,12.99
2023-04-04T16:07:23.962Z,12.60
2023-04-04T16:11:06.868Z,12.47
2023-04-04T16:14:49.758Z,12.25
2023-04-04T16:18:32.401Z,11.52
2023-04-04T16:22:15.471Z,10.76
2023-04-04T16:25:59.503Z,10.24
2023-04-04T16:29:42.134Z,9.84
2023-04-04T16:33:24.871Z,9.66
2023-04-04T16:37:09.614Z,9.55
2023-04-04T16:40:52.290Z,9.44
2023-04-04T16:44:36.577Z,9.30
2023-04-04T16:48:19.222Z,9.10
2023-04-04T16:52:01.857Z,8.72
2023-04-04T16:55:44.483Z,8.30
2023-04-04T16:59:27.779Z,7.90
2023-04-04T17:03:12.016Z,7.73
2023-04-04T17:06:54.764Z,7.48
2023-04-04T17:10:40.349Z,7.28
2023-04-04T17:14:23.220Z,7.02
2023-04-04T17:18:06.205Z,6.79
2023-04-04T17:21:51.450Z,6.47
2023-04-04T17:25:34.047Z,6.38
2023-04-04T17:29:17.371Z,6.21
2023-04-04T17:33:00.171Z,6.01
2023-04-04T17:36:43.773Z,5.91
2023-04-04T17:40:27.847Z,5.71
2023-04-04T17:44:10.532Z,5.59
2023-04-04T17:47:53.438Z,5.42
2023-04-04T17:51:36.170Z,5.42
2023-04-04T17:55:18.834Z,5.28
2023-04-04T17:59:05.255Z,5.17
2023-04-04T18:02:48.130Z,5.05
2023-04-04T18:06:30.965Z,5.02
2023-04-04T18:10:13.615Z,4.99
2023-04-04T18:13:56.229Z,4.88
2023-04-04T18:17:41.172Z,4.82
2023-04-04T18:21:23.820Z,4.73
2023-04-04T18:25:07.380Z,4.65
2023-04-04T18:28:50.037Z,4.61
2023-04-04T18:32:32.712Z,4.55
2023-04-04T18:36:16.964Z,4.46
2023-04-04T18:39:59.649Z,3.96
2023-04-04T18:43:42.391Z,3.73
2023-04-04T18:47:25.030Z,3.79
2023-04-04T18:51:07.914Z,3.88
2023-04-04T18:54:52.129Z,3.94
2023-04-04T18:58:37.423Z,3.97
2023-04-04T19:02:20.041Z,3.95
2023-04-04T19:06:02.997Z,3.91
2023-04-04T19:09:46.029Z,3.89
2023-04-04T19:13:30.045Z,3.87
2023-04-04T19:17:15.423Z,3.87
2023-04-04T19:20:58.988Z,3.87
2023-04-04T19:24:42.275Z,3.77
2023-04-04T19:28:25.068Z,3.72
2023-04-04T19:32:14.092Z,3.68
2023-04-04T19:35:59.023Z,3.64
2023-04-04T19:39:43.656Z,3.66
2023-04-04T19:43:27.066Z,3.67
2023-04-04T19:47:12.120Z,3.62
2023-04-04T19:50:54.785Z,3.66
2023-04-04T19:54:41.531Z,3.66
2023-04-04T19:58:24.573Z,3.62
2023-04-04T20:02:08.122Z,3.59
2023-04-04T20:06:13.314Z,3.59
2023-04-04T20:09:59.599Z,3.55
2023-04-04T20:13:42.930Z,3.51
2023-04-04T20:17:25.634Z,3.51
2023-04-04T20:21:11.633Z,3.46
2023-04-04T20:24:54.792Z,3.41
2023-04-04T20:28:38.563Z,3.38
2023-04-04T20:32:21.250Z,3.32
2023-04-04T20:36:13.630Z,3.27
2023-04-04T20:39:58.710Z,3.22
2023-04-04T20:43:42.294Z,3.17
2023-04-04T20:47:42.032Z,3.18
2023-04-04T20:51:30.884Z,3.16
2023-04-04T20:55:13.673Z,3.11
2023-04-04T20:58:56.400Z,3.08
2023-04-04T21:02:39.842Z,3.07
2023-04-04T21:06:29.475Z,3.05
2023-04-04T21:10:25.799Z,3.00
2023-04-04T21:14:08.463Z,2.95
2023-04-04T21:17:51.256Z,2.91
2023-04-04T21:21:36.478Z,2.91
2023-04-04T21:25:26.956Z,2.88
2023-04-04T21:29:16.658Z,2.83
2023-04-04T21:32:59.382Z,2.77
2023-04-04T21:36:43.805Z,2.73
2023-04-04T21:40:26.696Z,2.68
2023-04-04T21:44:10.461Z,2.63
2023-04-04T21:47:53.106Z,2.59
2023-04-04T21:51:35.978Z,2.51
2023-04-04T21:55:21.475Z,2.23
2023-04-04T21:59:05.457Z,2.16
2023-04-04T22:02:48.175Z,2.20
2023-04-04T22:06:31.068Z,2.22
2023-04-04T22:10:13.783Z,2.27
2023-04-04T22:14:04.502Z,2.26
2023-04-04T22:17:50.953Z,2.23
2023-04-04T22:21:36.589Z,2.23
2023-04-04T22:25:19.857Z,2.20
2023-04-04T22:29:06.152Z,2.16
2023-04-04T22:32:48.815Z,2.14
2023-04-04T22:36:31.529Z,2.13
2023-04-04T22:40:14.253Z,2.06
2023-04-04T22:43:57.176Z,2.04
2023-04-04T22:47:47.185Z,1.95
2023-04-04T22:51:29.874Z,1.87
2023-04-04T22:55:12.860Z,1.87
2023-04-04T22:58:55.574Z,1.79
2023-04-04T23:02:38.805Z,1.74
2023-04-04T23:06:23.644Z,1.70
2023-04-04T23:10:07.353Z,1.68
2023-04-04T23:13:49.985Z,1.62
2023-04-04T23:17:33.173Z,1.57
2023-04-04T23:21:15.874Z,1.49
2023-04-04T23:24:59.936Z,1.49
2023-04-04T23:28:42.606Z,1.50
2023-04-04T23:32:25.226Z,1.51
2023-04-04T23:36:08.513Z,1.52
2023-04-04T23:39:54.048Z,1.52
2023-04-04T23:43:38.637Z,1.46
2023-04-04T23:47:21.497Z,1.42
2023-04-04T23:51:04.345Z,1.41
2023-04-04T23:54:50.026Z,1.35
2023-04-04T23:58:32.624Z,1.35
